San Antonio, Texas
Traffic Map
Current Weather Conditions
San Antonio, Texas
Scattered Clouds
Scattered Clouds
31°
Feels Like: 35°
Wind Chill: 31° Ceiling: Unl
Heat Index: 35° Visibility: 10mi
Dew Point: 23° Wind: 12mph
Humidity: 62% Direction: 220° (SW)
Pressure: 30.07in Gusts: 17mph
Raw Report DataKSKF 241923Z AUTO 22010G15KT 10SM SCT040 31/23 A3007 RMK AO2 $
Traffic Incident Summary
Active as of:
Severity:
Category:
InformationThere was an issue retrieving the traffic information for this location. Please try a different location or try again shortly.
Advertisements
Track Severe Weather on mobile